Time;durP1;ratioP1;P1;durP2;ratioP2;P2;SDS_P1;SDS_P2;PMS_P1;PMS_P2;Temp;Humidity;BMP_temperature;BMP_pressure;BME280_temperature;BME280_humidity;BME280_pressure;Samples;Min_cycle;Max_cycle;Signal;HPM_P1;HPM_P2
2023/05/31 00:00:19;;;;;;;2.87;2.00;;;;;;;;;;5094964;28;21021;-59
2023/05/31 00:02:46;;;;;;;1.83;1.57;;;;;;;;;;5094959;28;20814;-59
2023/05/31 00:05:14;;;;;;;3.83;1.57;;;;;;;;;;5094846;28;20483;-59
2023/05/31 00:07:41;;;;;;;4.60;1.80;;;;;;;;;;5094995;28;20455;-59
2023/05/31 00:10:09;;;;;;;1.70;1.57;;;;;;;;;;5094864;28;20448;-59
2023/05/31 00:12:36;;;;;;;2.37;1.50;;;;;;;;;;5094727;28;20482;-59
2023/05/31 00:15:04;;;;;;;5.00;1.90;;;;;;;;;;5094719;28;20538;-59
2023/05/31 00:17:31;;;;;;;4.77;1.63;;;;;;;;;;5094549;28;20487;-59
2023/05/31 00:20:00;;;;;;;2.50;1.50;;;;;;;;;;5093793;28;20447;-59
2023/05/31 00:22:27;;;;;;;1.60;1.50;;;;;;;;;;5094744;28;20483;-60
2023/05/31 00:24:55;;;;;;;3.83;1.80;;;;;;;;;;5094699;28;20418;-59
2023/05/31 00:27:22;;;;;;;3.43;1.73;;;;;;;;;;5094528;28;20443;-59
2023/05/31 00:29:49;;;;;;;2.10;1.50;;;;;;;;;;5094473;28;20797;-59
2023/05/31 00:32:17;;;;;;;3.40;2.00;;;;;;;;;;5094370;28;20538;-60
2023/05/31 00:34:44;;;;;;;2.37;1.90;;;;;;;;;;5094305;28;20494;-59
2023/05/31 00:37:11;;;;;;;5.93;1.67;;;;;;;;;;5094089;28;20453;-59
2023/05/31 00:39:38;;;;;;;2.20;1.73;;;;;;;;;;5094258;28;20454;-59
2023/05/31 00:42:05;;;;;;;3.27;2.50;;;;;;;;;;5094254;28;20461;-59
2023/05/31 00:44:32;;;;;;;4.10;1.43;;;;;;;;;;5094126;28;20941;-59
2023/05/31 00:46:59;;;;;;;5.40;1.63;;;;;;;;;;5094020;28;20538;-59
2023/05/31 00:49:28;;;;;;;1.90;1.60;;;;;;;;;;5094199;28;20818;-59
2023/05/31 00:51:55;;;;;;;3.73;2.27;;;;;;;;;;5094062;28;20448;-59
2023/05/31 00:54:22;;;;;;;6.80;1.90;;;;;;;;;;5094047;28;20486;-59
2023/05/31 00:56:50;;;;;;;2.13;1.60;;;;;;;;;;5093546;28;20453;-59
2023/05/31 00:59:17;;;;;;;2.10;1.87;;;;;;;;;;5093777;28;20942;-59
2023/05/31 01:01:44;;;;;;;2.20;2.07;;;;;;;;;;5094007;28;20537;-59
2023/05/31 01:04:11;;;;;;;4.07;1.47;;;;;;;;;;5093902;28;20454;-59
2023/05/31 01:06:40;;;;;;;2.07;1.53;;;;;;;;;;5093636;28;20969;-59
2023/05/31 01:09:08;;;;;;;1.50;1.40;;;;;;;;;;5093576;28;20455;-59
2023/05/31 01:11:38;;;;;;;2.03;1.50;;;;;;;;;;5093541;28;20566;-60
2023/05/31 01:14:10;;;;;;;2.00;1.63;;;;;;;;;;5093503;28;20505;-59
2023/05/31 01:16:41;;;;;;;2.63;1.80;;;;;;;;;;5093647;28;20555;-59
2023/05/31 01:19:15;;;;;;;3.43;1.83;;;;;;;;;;5093916;28;20441;-60
2023/05/31 01:21:52;;;;;;;2.70;1.60;;;;;;;;;;5093733;28;20429;-60
2023/05/31 01:24:27;;;;;;;3.90;1.80;;;;;;;;;;5093325;28;20501;-60
2023/05/31 01:26:58;;;;;;;3.97;1.93;;;;;;;;;;5093601;28;20451;-59
2023/05/31 01:29:26;;;;;;;2.70;1.80;;;;;;;;;;5093452;28;20443;-59
2023/05/31 01:31:54;;;;;;;4.23;2.10;;;;;;;;;;5093124;28;20446;-59
2023/05/31 01:34:23;;;;;;;2.17;1.73;;;;;;;;;;5093250;28;20446;-60
2023/05/31 01:36:50;;;;;;;4.70;2.10;;;;;;;;;;5092980;28;20454;-59
2023/05/31 01:39:17;;;;;;;2.40;1.60;;;;;;;;;;5093358;28;20450;-60
2023/05/31 01:41:45;;;;;;;3.37;1.77;;;;;;;;;;5093090;28;20448;-59
2023/05/31 01:44:14;;;;;;;2.70;1.80;;;;;;;;;;5093208;28;20447;-59
2023/05/31 01:46:42;;;;;;;7.23;2.33;;;;;;;;;;5093176;28;20458;-59
2023/05/31 01:49:10;;;;;;;4.43;2.27;;;;;;;;;;5093100;28;20912;-59
2023/05/31 01:51:38;;;;;;;5.63;2.10;;;;;;;;;;5092999;28;21078;-59
2023/05/31 01:54:06;;;;;;;2.40;1.63;;;;;;;;;;5093261;28;20424;-60
2023/05/31 01:56:33;;;;;;;2.03;1.60;;;;;;;;;;5092817;28;20561;-59
2023/05/31 01:59:01;;;;;;;1.70;1.60;;;;;;;;;;5092883;28;20426;-59
2023/05/31 02:01:30;;;;;;;2.07;1.87;;;;;;;;;;5092958;28;20458;-59
2023/05/31 02:03:57;;;;;;;5.53;2.23;;;;;;;;;;5092813;28;20413;-59
2023/05/31 02:06:26;;;;;;;2.50;2.17;;;;;;;;;;5093045;28;20429;-60
2023/05/31 02:08:53;;;;;;;2.03;1.83;;;;;;;;;;5093443;28;20451;-60
2023/05/31 02:11:21;;;;;;;2.97;1.63;;;;;;;;;;5092912;28;20485;-59
2023/05/31 02:13:48;;;;;;;2.80;1.90;;;;;;;;;;5092823;28;20442;-59
2023/05/31 02:16:16;;;;;;;3.17;1.80;;;;;;;;;;5092710;28;20447;-59
2023/05/31 02:18:45;;;;;;;4.20;1.93;;;;;;;;;;5092923;28;20464;-59
2023/05/31 02:21:12;;;;;;;2.40;1.93;;;;;;;;;;5092732;28;20743;-59
2023/05/31 02:23:39;;;;;;;4.50;2.33;;;;;;;;;;5092916;28;20425;-59
2023/05/31 02:26:06;;;;;;;2.40;1.60;;;;;;;;;;5093028;28;20447;-59
2023/05/31 02:28:33;;;;;;;2.60;2.07;;;;;;;;;;5092770;28;20447;-59
2023/05/31 02:31:01;;;;;;;2.67;2.37;;;;;;;;;;5092678;28;20804;-60
2023/05/31 02:33:29;;;;;;;2.57;2.37;;;;;;;;;;5092884;28;20791;-59
2023/05/31 02:35:58;;;;;;;2.70;2.10;;;;;;;;;;5092536;28;20508;-60
2023/05/31 02:38:25;;;;;;;4.00;2.40;;;;;;;;;;5092656;28;20551;-59
2023/05/31 02:40:52;;;;;;;2.23;2.03;;;;;;;;;;5092693;28;20451;-59
2023/05/31 02:43:19;;;;;;;3.10;2.00;;;;;;;;;;5095334;28;20424;-60
2023/05/31 02:45:46;;;;;;;2.93;2.13;;;;;;;;;;5096303;28;20485;-60
2023/05/31 02:48:13;;;;;;;3.50;2.47;;;;;;;;;;5096515;28;20480;-60
2023/05/31 02:50:41;;;;;;;2.90;2.33;;;;;;;;;;5096439;28;20479;-59
2023/05/31 02:53:09;;;;;;;2.87;2.30;;;;;;;;;;5096336;28;20457;-59
2023/05/31 02:55:37;;;;;;;2.27;1.97;;;;;;;;;;5096000;28;20544;-59
2023/05/31 02:58:04;;;;;;;2.57;2.17;;;;;;;;;;5095981;28;20453;-59
2023/05/31 03:00:31;;;;;;;2.07;1.87;;;;;;;;;;5096357;28;20470;-60
2023/05/31 03:02:58;;;;;;;5.03;3.17;;;;;;;;;;5096139;28;20450;-59
2023/05/31 03:05:26;;;;;;;7.50;2.60;;;;;;;;;;5096117;28;20421;-59
2023/05/31 03:07:53;;;;;;;3.90;2.10;;;;;;;;;;5096040;28;20429;-59
2023/05/31 03:10:21;;;;;;;2.77;2.50;;;;;;;;;;5095939;28;20557;-60
2023/05/31 03:12:48;;;;;;;3.93;2.43;;;;;;;;;;5095807;28;20436;-59
2023/05/31 03:15:15;;;;;;;5.30;2.90;;;;;;;;;;5095973;28;20454;-59
2023/05/31 03:17:43;;;;;;;5.07;2.30;;;;;;;;;;5095829;28;20482;-60
2023/05/31 03:20:10;;;;;;;7.83;3.10;;;;;;;;;;5095760;28;20471;-59
2023/05/31 03:22:38;;;;;;;3.73;1.90;;;;;;;;;;5095714;28;20421;-59
2023/05/31 03:25:06;;;;;;;3.67;1.87;;;;;;;;;;5095498;28;20452;-59
2023/05/31 03:27:34;;;;;;;2.50;2.30;;;;;;;;;;5095781;28;20450;-59
2023/05/31 03:30:01;;;;;;;2.23;2.00;;;;;;;;;;5095729;28;20980;-59
2023/05/31 03:32:28;;;;;;;3.83;2.60;;;;;;;;;;5095539;28;20451;-59
2023/05/31 03:34:55;;;;;;;4.07;2.70;;;;;;;;;;5095547;28;20508;-59
2023/05/31 03:37:22;;;;;;;2.90;1.80;;;;;;;;;;5095308;28;20984;-59
2023/05/31 03:39:50;;;;;;;3.43;2.00;;;;;;;;;;5095376;28;20575;-59
2023/05/31 03:42:17;;;;;;;3.67;2.20;;;;;;;;;;5095503;28;20451;-60
2023/05/31 03:44:45;;;;;;;2.27;2.07;;;;;;;;;;5095202;28;20912;-59
2023/05/31 03:47:12;;;;;;;3.37;2.40;;;;;;;;;;5095376;28;20850;-59
2023/05/31 03:49:40;;;;;;;2.00;1.70;;;;;;;;;;5095178;28;20432;-59
2023/05/31 03:52:08;;;;;;;3.50;2.00;;;;;;;;;;5095063;28;21003;-59
2023/05/31 03:54:37;;;;;;;3.13;1.80;;;;;;;;;;5095247;28;20840;-59
2023/05/31 03:57:04;;;;;;;2.20;1.73;;;;;;;;;;5094903;28;20496;-60
2023/05/31 03:59:31;;;;;;;5.00;1.90;;;;;;;;;;5095232;28;20489;-59
2023/05/31 04:01:59;;;;;;;6.83;2.10;;;;;;;;;;5095239;28;20799;-59
2023/05/31 04:04:27;;;;;;;5.37;2.00;;;;;;;;;;5094988;28;20499;-59
2023/05/31 04:06:54;;;;;;;8.80;2.60;;;;;;;;;;5094723;28;20426;-59
2023/05/31 04:09:21;;;;;;;4.67;2.27;;;;;;;;;;5094920;28;20464;-60
2023/05/31 04:11:48;;;;;;;4.43;2.07;;;;;;;;;;5094833;28;20875;-59
2023/05/31 04:14:15;;;;;;;3.30;1.57;;;;;;;;;;5094785;28;20421;-59
2023/05/31 04:16:42;;;;;;;2.40;2.20;;;;;;;;;;5094603;28;20418;-61
2023/05/31 04:19:11;;;;;;;4.93;1.97;;;;;;;;;;5094906;28;20824;-60
2023/05/31 04:21:40;;;;;;;4.40;1.87;;;;;;;;;;5094535;28;20451;-59
2023/05/31 04:24:13;;;;;;;4.43;2.17;;;;;;;;;;5094241;28;20924;-60
2023/05/31 04:26:40;;;;;;;8.27;2.00;;;;;;;;;;5094520;28;20504;-60
2023/05/31 04:29:11;;;;;;;2.43;1.80;;;;;;;;;;5094677;28;20447;-60
2023/05/31 04:31:38;;;;;;;2.37;2.17;;;;;;;;;;5094481;28;21075;-60
2023/05/31 04:34:05;;;;;;;3.40;1.90;;;;;;;;;;5094160;28;20936;-60
2023/05/31 04:36:36;;;;;;;6.47;2.83;;;;;;;;;;5094397;28;20425;-61
2023/05/31 04:39:09;;;;;;;2.73;2.10;;;;;;;;;;5094101;28;20464;-60
2023/05/31 04:41:36;;;;;;;2.83;2.03;;;;;;;;;;5094266;28;20421;-60
2023/05/31 04:44:03;;;;;;;4.50;2.57;;;;;;;;;;5094142;28;20819;-59
2023/05/31 04:46:30;;;;;;;2.70;2.23;;;;;;;;;;5093894;28;20425;-59
2023/05/31 04:49:00;;;;;;;3.33;1.97;;;;;;;;;;5094050;28;20473;-59
2023/05/31 04:51:27;;;;;;;3.23;1.87;;;;;;;;;;5094133;28;20458;-59
2023/05/31 04:53:55;;;;;;;3.60;2.10;;;;;;;;;;5094275;28;20917;-58
2023/05/31 04:56:23;;;;;;;2.57;2.03;;;;;;;;;;5093702;28;20457;-59
2023/05/31 04:58:50;;;;;;;2.03;1.83;;;;;;;;;;5093687;28;20781;-60
2023/05/31 05:01:17;;;;;;;3.10;1.93;;;;;;;;;;5094048;28;20850;-59
2023/05/31 05:03:45;;;;;;;6.43;2.57;;;;;;;;;;5093946;28;20504;-59
2023/05/31 05:06:16;;;;;;;3.87;2.10;;;;;;;;;;5093554;28;20853;-59
2023/05/31 05:08:43;;;;;;;2.43;1.60;;;;;;;;;;5093734;28;20516;-60
2023/05/31 05:11:21;;;;;;;3.87;2.37;;;;;;;;;;5093665;28;20811;-60
2023/05/31 05:13:48;;;;;;;3.87;1.90;;;;;;;;;;5093819;28;20479;-60
2023/05/31 05:16:15;;;;;;;9.33;2.27;;;;;;;;;;5093439;28;20457;-60
2023/05/31 05:18:42;;;;;;;4.73;2.30;;;;;;;;;;5093576;28;20489;-60
2023/05/31 05:21:11;;;;;;;2.20;1.97;;;;;;;;;;5093460;28;20533;-60
2023/05/31 05:23:39;;;;;;;2.60;2.30;;;;;;;;;;5093399;28;20894;-59
2023/05/31 05:26:06;;;;;;;5.27;1.83;;;;;;;;;;5093640;28;20458;-58
2023/05/31 05:28:35;;;;;;;2.10;1.73;;;;;;;;;;5093691;28;20453;-59
2023/05/31 05:31:03;;;;;;;4.90;2.00;;;;;;;;;;5093438;28;20946;-59
2023/05/31 05:33:30;;;;;;;2.40;2.20;;;;;;;;;;5093325;28;20806;-59
2023/05/31 05:35:57;;;;;;;2.90;1.77;;;;;;;;;;5093141;28;20511;-59
2023/05/31 05:38:24;;;;;;;2.80;1.80;;;;;;;;;;5093054;28;20848;-60
2023/05/31 05:40:51;;;;;;;4.37;1.97;;;;;;;;;;5093317;28;20451;-59
2023/05/31 05:43:18;;;;;;;6.43;3.13;;;;;;;;;;5093344;28;20809;-59
2023/05/31 05:45:46;;;;;;;6.00;2.10;;;;;;;;;;5093217;28;20502;-59
2023/05/31 05:48:14;;;;;;;4.00;2.00;;;;;;;;;;5093222;28;20465;-59
2023/05/31 05:50:41;;;;;;;5.17;2.80;;;;;;;;;;5092887;28;20962;-59
2023/05/31 05:53:08;;;;;;;3.70;2.40;;;;;;;;;;5093015;28;20462;-59
2023/05/31 05:55:35;;;;;;;6.53;2.10;;;;;;;;;;5092806;28;20482;-59
2023/05/31 05:58:02;;;;;;;3.23;2.30;;;;;;;;;;5092808;28;20425;-59
2023/05/31 06:00:31;;;;;;;5.23;2.13;;;;;;;;;;5092828;28;20517;-58
2023/05/31 06:02:59;;;;;;;2.80;1.77;;;;;;;;;;5093408;28;20830;-58
2023/05/31 06:05:28;;;;;;;3.27;2.10;;;;;;;;;;5092818;28;20601;-58
2023/05/31 06:07:55;;;;;;;6.03;2.10;;;;;;;;;;5092999;28;20469;-60
2023/05/31 06:10:22;;;;;;;2.10;1.90;;;;;;;;;;5092897;28;20433;-59
2023/05/31 06:12:49;;;;;;;3.77;2.90;;;;;;;;;;5092797;28;20444;-59
2023/05/31 06:15:16;;;;;;;3.40;2.00;;;;;;;;;;5092742;28;20458;-59
2023/05/31 06:17:43;;;;;;;1.80;1.70;;;;;;;;;;5094590;28;20525;-59
2023/05/31 06:20:14;;;;;;;3.40;1.70;;;;;;;;;;5096680;28;20483;-61
2023/05/31 06:22:41;;;;;;;2.00;1.70;;;;;;;;;;5097064;28;20796;-59
2023/05/31 06:25:08;;;;;;;2.40;2.07;;;;;;;;;;5096881;28;20475;-59
2023/05/31 06:27:35;;;;;;;2.97;1.80;;;;;;;;;;5096805;28;20454;-59
2023/05/31 06:30:03;;;;;;;2.90;1.80;;;;;;;;;;5096770;28;20458;-60
2023/05/31 06:32:30;;;;;;;3.33;2.30;;;;;;;;;;5096608;28;20480;-60
2023/05/31 06:34:57;;;;;;;5.10;2.10;;;;;;;;;;5096647;28;20468;-59
2023/05/31 06:37:25;;;;;;;1.80;1.70;;;;;;;;;;5096654;28;20456;-58
2023/05/31 06:39:53;;;;;;;2.63;1.80;;;;;;;;;;5096300;28;20509;-58
2023/05/31 06:42:21;;;;;;;3.33;2.80;;;;;;;;;;5096556;28;20451;-59
2023/05/31 06:44:48;;;;;;;1.87;1.50;;;;;;;;;;5096472;28;20460;-60
2023/05/31 06:47:15;;;;;;;5.93;2.03;;;;;;;;;;5096422;28;20465;-59
2023/05/31 06:49:42;;;;;;;2.67;1.97;;;;;;;;;;5096571;28;20484;-59
2023/05/31 06:52:10;;;;;;;1.87;1.77;;;;;;;;;;5096490;28;20483;-59
2023/05/31 06:54:39;;;;;;;10.50;2.50;;;;;;;;;;5096169;28;20452;-59
2023/05/31 06:57:10;;;;;;;5.33;2.20;;;;;;;;;;5095951;28;20481;-58
2023/05/31 06:59:37;;;;;;;3.40;2.40;;;;;;;;;;5095923;28;20491;-59
2023/05/31 07:02:04;;;;;;;1.80;1.70;;;;;;;;;;5096004;28;20530;-59
2023/05/31 07:04:32;;;;;;;2.93;1.97;;;;;;;;;;5100412;28;20852;-60
2023/05/31 07:06:59;;;;;;;4.00;3.40;;;;;;;;;;5109721;28;20453;-57
2023/05/31 07:09:29;;;;;;;3.70;1.97;;;;;;;;;;5105967;28;20829;-58
2023/05/31 07:11:57;;;;;;;2.50;1.77;;;;;;;;;;5101717;28;20995;-58
2023/05/31 07:14:24;;;;;;;3.60;1.80;;;;;;;;;;5113728;28;20959;-59
2023/05/31 07:16:51;;;;;;;2.80;2.00;;;;;;;;;;5116155;28;20440;-58
2023/05/31 07:19:18;;;;;;;3.10;1.80;;;;;;;;;;5105947;28;20841;-58
2023/05/31 07:21:44;;;;;;;1.87;1.77;;;;;;;;;;5095425;28;20458;-58
2023/05/31 07:24:12;;;;;;;4.90;1.90;;;;;;;;;;5095376;28;20460;-58
2023/05/31 07:26:40;;;;;;;4.80;2.60;;;;;;;;;;5095359;28;20484;-59
2023/05/31 07:29:09;;;;;;;7.03;2.20;;;;;;;;;;5094935;28;20452;-59
2023/05/31 07:31:38;;;;;;;2.50;1.87;;;;;;;;;;5095459;28;20539;-60
2023/05/31 07:34:05;;;;;;;4.37;2.10;;;;;;;;;;5095532;28;20455;-59
2023/05/31 07:36:32;;;;;;;7.47;2.40;;;;;;;;;;5095249;28;20536;-59
2023/05/31 07:39:00;;;;;;;2.17;1.97;;;;;;;;;;5095091;28;20505;-59
2023/05/31 07:41:28;;;;;;;2.70;2.20;;;;;;;;;;5094988;28;20468;-59
2023/05/31 07:43:55;;;;;;;7.20;1.90;;;;;;;;;;5095327;28;20499;-60
2023/05/31 07:46:24;;;;;;;5.70;2.13;;;;;;;;;;5097232;28;20459;-58
2023/05/31 07:48:53;;;;;;;5.80;2.00;;;;;;;;;;5115440;28;20457;-59
2023/05/31 07:51:21;;;;;;;3.33;2.17;;;;;;;;;;5115459;28;20452;-58
2023/05/31 07:53:47;;;;;;;3.97;1.93;;;;;;;;;;5115349;28;20572;-57
2023/05/31 07:56:15;;;;;;;1.73;1.60;;;;;;;;;;5115368;28;20563;-59
2023/05/31 07:58:42;;;;;;;5.17;2.53;;;;;;;;;;5115195;28;20446;-58
2023/05/31 08:01:09;;;;;;;2.70;2.03;;;;;;;;;;5115356;28;20450;-56
2023/05/31 08:03:39;;;;;;;2.20;1.83;;;;;;;;;;5115247;28;20454;-57
2023/05/31 08:06:06;;;;;;;2.07;1.70;;;;;;;;;;5115024;28;20538;-58
2023/05/31 08:08:36;;;;;;;3.53;1.93;;;;;;;;;;5114842;28;20547;-59
2023/05/31 08:11:03;;;;;;;4.73;1.87;;;;;;;;;;5115159;28;20540;-57
2023/05/31 08:13:30;;;;;;;1.60;1.50;;;;;;;;;;5115074;28;20874;-58
2023/05/31 08:15:57;;;;;;;2.77;1.80;;;;;;;;;;5114903;28;20964;-57
2023/05/31 08:18:24;;;;;;;3.67;2.07;;;;;;;;;;5114785;28;20450;-59
2023/05/31 08:20:52;;;;;;;1.63;1.30;;;;;;;;;;5114611;28;21064;-59
2023/05/31 08:23:19;;;;;;;3.47;1.87;;;;;;;;;;5114734;28;20507;-59
2023/05/31 08:25:46;;;;;;;7.00;1.93;;;;;;;;;;5114893;28;20488;-58
2023/05/31 08:28:13;;;;;;;12.37;2.13;;;;;;;;;;5114686;28;20450;-52
2023/05/31 08:30:40;;;;;;;4.33;1.90;;;;;;;;;;5114740;28;20456;-59
2023/05/31 08:33:07;;;;;;;1.90;1.70;;;;;;;;;;5114580;28;20446;-60
2023/05/31 08:35:34;;;;;;;5.97;1.50;;;;;;;;;;5114302;28;20486;-59
2023/05/31 08:38:02;;;;;;;3.77;1.90;;;;;;;;;;5114469;28;20450;-59
2023/05/31 08:40:31;;;;;;;2.00;1.57;;;;;;;;;;5113449;28;20902;-58
2023/05/31 08:43:01;;;;;;;3.37;1.70;;;;;;;;;;5114437;28;20469;-57
2023/05/31 08:45:29;;;;;;;3.80;1.70;;;;;;;;;;5114393;28;20450;-57
2023/05/31 08:48:00;;;;;;;5.07;2.03;;;;;;;;;;5114155;28;20457;-61
2023/05/31 08:50:31;;;;;;;4.77;1.77;;;;;;;;;;5114555;28;20898;-58
2023/05/31 08:52:59;;;;;;;3.23;1.90;;;;;;;;;;5114337;28;20442;-63
2023/05/31 08:55:28;;;;;;;2.97;2.17;;;;;;;;;;5114136;28;20474;-60
2023/05/31 08:57:55;;;;;;;3.97;1.70;;;;;;;;;;5114031;28;20442;-56
2023/05/31 09:00:22;;;;;;;3.63;1.70;;;;;;;;;;5092154;28;20477;-55
2023/05/31 09:02:50;;;;;;;8.10;1.97;;;;;;;;;;5091777;28;20451;-54
2023/05/31 09:05:17;;;;;;;4.23;2.07;;;;;;;;;;5093544;28;20450;-57
2023/05/31 09:07:46;;;;;;;2.50;1.77;;;;;;;;;;5092997;28;20497;-58
2023/05/31 09:10:15;;;;;;;7.10;2.27;;;;;;;;;;5093518;28;20538;-57
2023/05/31 09:12:44;;;;;;;2.40;1.70;;;;;;;;;;5093434;28;20443;-56
2023/05/31 09:15:14;;;;;;;4.80;1.80;;;;;;;;;;5093382;28;20523;-57
2023/05/31 09:17:43;;;;;;;4.67;2.07;;;;;;;;;;5093551;28;20463;-56
2023/05/31 09:20:11;;;;;;;2.37;1.70;;;;;;;;;;5093369;28;20470;-57
2023/05/31 09:22:38;;;;;;;6.07;1.83;;;;;;;;;;5093421;28;20446;-57
2023/05/31 09:25:06;;;;;;;3.30;1.63;;;;;;;;;;5093366;28;20509;-56
2023/05/31 09:27:36;;;;;;;4.60;2.17;;;;;;;;;;5093029;28;20479;-57
2023/05/31 09:30:08;;;;;;;5.90;1.63;;;;;;;;;;5093363;28;20447;-56
2023/05/31 09:32:35;;;;;;;4.30;1.80;;;;;;;;;;5093233;28;20533;-57
2023/05/31 09:35:12;;;;;;;3.73;1.90;;;;;;;;;;5093081;28;20957;-56
2023/05/31 09:37:43;;;;;;;2.37;2.00;;;;;;;;;;5092996;28;20446;-55
2023/05/31 09:40:11;;;;;;;7.43;2.13;;;;;;;;;;5092692;28;20479;-55
2023/05/31 09:42:38;;;;;;;3.17;1.80;;;;;;;;;;5093038;28;20562;-56
2023/05/31 09:45:07;;;;;;;4.20;2.20;;;;;;;;;;5092844;28;20590;-53
2023/05/31 09:47:40;;;;;;;3.53;1.83;;;;;;;;;;5092684;28;20542;-56
2023/05/31 09:50:09;;;;;;;4.23;2.00;;;;;;;;;;5093114;28;20541;-56
2023/05/31 09:52:38;;;;;;;4.30;1.80;;;;;;;;;;5092538;28;20503;-57
2023/05/31 09:55:08;;;;;;;3.57;2.00;;;;;;;;;;5092938;28;20997;-57
2023/05/31 09:57:40;;;;;;;4.53;1.97;;;;;;;;;;5092814;28;21003;-56
2023/05/31 10:00:15;;;;;;;3.43;1.97;;;;;;;;;;5092414;28;20482;-57
2023/05/31 10:02:43;;;;;;;5.90;2.10;;;;;;;;;;5077312;28;20553;-58
2023/05/31 10:05:11;;;;;;;4.33;2.33;;;;;;;;;;5091976;28;21151;-57
2023/05/31 10:07:38;;;;;;;3.60;1.80;;;;;;;;;;5089540;28;20961;-56
2023/05/31 10:10:06;;;;;;;3.13;1.90;;;;;;;;;;5092165;28;20479;-59
2023/05/31 10:12:36;;;;;;;6.87;1.80;;;;;;;;;;5092365;28;20780;-60
2023/05/31 10:15:05;;;;;;;3.20;1.60;;;;;;;;;;5092553;28;20928;-57
2023/05/31 10:17:40;;;;;;;5.60;2.20;;;;;;;;;;5092367;28;20988;-59
2023/05/31 10:20:09;;;;;;;2.70;1.80;;;;;;;;;;5092342;28;20466;-59
2023/05/31 10:22:37;;;;;;;2.00;1.80;;;;;;;;;;5092603;28;20451;-59
2023/05/31 10:25:05;;;;;;;4.93;2.07;;;;;;;;;;5092315;28;20534;-62
2023/05/31 10:27:38;;;;;;;4.20;2.43;;;;;;;;;;5092099;28;20867;-59
2023/05/31 10:30:05;;;;;;;4.43;1.63;;;;;;;;;;5092011;28;20439;-58
2023/05/31 10:32:35;;;;;;;2.37;1.73;;;;;;;;;;5092442;28;20803;-59
2023/05/31 10:35:02;;;;;;;5.70;1.70;;;;;;;;;;5093007;28;21015;-59
2023/05/31 10:37:30;;;;;;;4.67;1.67;;;;;;;;;;5092264;28;20445;-59
2023/05/31 10:39:59;;;;;;;5.10;1.60;;;;;;;;;;5092407;28;20442;-59
2023/05/31 10:42:29;;;;;;;2.13;1.40;;;;;;;;;;5092406;28;20818;-59
2023/05/31 10:44:59;;;;;;;3.87;1.60;;;;;;;;;;5092788;28;20455;-61
2023/05/31 10:47:36;;;;;;;4.23;1.70;;;;;;;;;;5092621;28;20453;-60
2023/05/31 10:50:04;;;;;;;2.70;1.40;;;;;;;;;;5092626;28;20593;-60
2023/05/31 10:52:31;;;;;;;4.20;2.10;;;;;;;;;;5092309;28;20521;-61
2023/05/31 10:55:13;;;;;;;2.87;1.67;;;;;;;;;;5092073;28;20928;-60
2023/05/31 10:57:40;;;;;;;4.17;1.80;;;;;;;;;;5091951;28;20447;-59
2023/05/31 11:00:11;;;;;;;3.23;1.77;;;;;;;;;;5092431;28;20545;-58
2023/05/31 11:02:38;;;;;;;7.33;2.40;;;;;;;;;;5092327;28;20547;-59
2023/05/31 11:05:24;;;;;;;3.73;1.67;;;;;;;;;;5095524;28;20443;-58
2023/05/31 11:07:51;;;;;;;11.07;2.90;;;;;;;;;;5095525;28;20451;-58
2023/05/31 11:10:28;;;;;;;1.70;1.60;;;;;;;;;;5095758;28;20447;-59
2023/05/31 11:12:57;;;;;;;2.13;1.50;;;;;;;;;;5095691;28;20480;-59
2023/05/31 11:15:39;;;;;;;1.97;1.47;;;;;;;;;;5095647;28;20450;-58
2023/05/31 11:18:08;;;;;;;8.83;2.43;;;;;;;;;;5095510;28;20455;-60
2023/05/31 11:20:36;;;;;;;1.63;1.47;;;;;;;;;;5095198;28;20557;-58
2023/05/31 11:23:23;;;;;;;2.70;1.40;;;;;;;;;;5095337;28;20443;-62
2023/05/31 11:26:07;;;;;;;3.90;1.77;;;;;;;;;;5093929;28;20447;-59
2023/05/31 11:28:51;;;;;;;3.10;1.70;;;;;;;;;;5095016;28;20447;-60
2023/05/31 11:31:18;;;;;;;4.70;1.47;;;;;;;;;;5095412;28;20926;-60
2023/05/31 11:33:46;;;;;;;4.90;1.23;;;;;;;;;;5095217;28;20447;-60
2023/05/31 11:36:16;;;;;;;10.50;3.90;;;;;;;;;;5095173;28;20473;-61
2023/05/31 11:38:43;;;;;;;4.50;1.60;;;;;;;;;;5094741;28;20505;-60
2023/05/31 11:41:10;;;;;;;2.80;1.30;;;;;;;;;;5095136;28;20483;-60
2023/05/31 11:43:37;;;;;;;2.37;1.20;;;;;;;;;;5095302;28;20482;-59
2023/05/31 11:46:06;;;;;;;2.50;1.50;;;;;;;;;;5095172;28;20451;-61
2023/05/31 11:48:45;;;;;;;2.87;2.17;;;;;;;;;;5094692;28;20469;-60
2023/05/31 11:51:12;;;;;;;2.40;1.60;;;;;;;;;;5093239;28;20946;-61
2023/05/31 11:53:41;;;;;;;4.53;1.80;;;;;;;;;;5094777;28;20543;-59
2023/05/31 11:56:12;;;;;;;2.07;1.47;;;;;;;;;;5094329;28;20524;-61
2023/05/31 11:58:39;;;;;;;2.30;1.93;;;;;;;;;;5092511;28;20447;-62
2023/05/31 12:01:06;;;;;;;1.77;1.27;;;;;;;;;;5094491;28;20475;-58
2023/05/31 12:03:34;;;;;;;5.60;1.80;;;;;;;;;;5094309;28;20475;-59
2023/05/31 12:06:02;;;;;;;2.93;1.50;;;;;;;;;;5094375;28;20451;-59
2023/05/31 12:08:29;;;;;;;2.50;1.50;;;;;;;;;;5094782;28;20950;-56
2023/05/31 12:11:06;;;;;;;5.57;1.60;;;;;;;;;;5094525;28;20455;-59
2023/05/31 12:13:34;;;;;;;2.67;1.33;;;;;;;;;;5094446;28;20446;-59
2023/05/31 12:16:00;;;;;;;2.63;1.63;;;;;;;;;;5094562;28;20493;-59
2023/05/31 12:18:27;;;;;;;2.13;1.60;;;;;;;;;;5096857;28;20935;-60
2023/05/31 12:20:54;;;;;;;1.93;1.50;;;;;;;;;;5114949;28;20476;-58
2023/05/31 12:23:21;;;;;;;2.00;1.70;;;;;;;;;;5114952;28;20446;-60
2023/05/31 12:25:56;;;;;;;1.40;1.23;;;;;;;;;;5114786;28;20450;-65
2023/05/31 12:28:24;;;;;;;1.83;1.37;;;;;;;;;;5114779;28;20452;-59
2023/05/31 12:30:52;;;;;;;1.97;1.30;;;;;;;;;;5114512;28;21048;-58
2023/05/31 12:33:19;;;;;;;3.90;1.50;;;;;;;;;;5114588;28;20442;-59
2023/05/31 12:35:47;;;;;;;3.50;1.40;;;;;;;;;;5114716;28;20851;-58
2023/05/31 12:38:14;;;;;;;4.60;1.60;;;;;;;;;;5114443;28;20450;-58
2023/05/31 12:40:44;;;;;;;2.20;1.30;;;;;;;;;;5114144;28;20938;-58
2023/05/31 12:43:14;;;;;;;4.43;1.83;;;;;;;;;;5109554;28;20444;-58
2023/05/31 12:45:42;;;;;;;2.17;1.70;;;;;;;;;;5093623;28;20446;-58
2023/05/31 12:48:11;;;;;;;1.80;1.30;;;;;;;;;;5091041;28;20526;-58
2023/05/31 12:50:38;;;;;;;3.47;1.30;;;;;;;;;;5093693;28;20478;-58
2023/05/31 12:53:08;;;;;;;1.47;1.33;;;;;;;;;;5093565;28;20534;-58
2023/05/31 12:55:35;;;;;;;1.50;1.40;;;;;;;;;;5093197;28;20463;-58
2023/05/31 12:58:02;;;;;;;1.83;1.27;;;;;;;;;;5093231;28;20524;-58
2023/05/31 13:00:30;;;;;;;3.17;2.57;;;;;;;;;;5090821;28;20439;-58
2023/05/31 13:02:58;;;;;;;1.57;1.47;;;;;;;;;;5093500;28;20447;-58
2023/05/31 13:05:26;;;;;;;1.20;1.10;;;;;;;;;;5093223;28;20469;-58
2023/05/31 13:07:53;;;;;;;1.77;1.67;;;;;;;;;;5093157;28;20447;-58
2023/05/31 13:10:22;;;;;;;1.53;1.20;;;;;;;;;;5093161;28;20439;-57
2023/05/31 13:12:49;;;;;;;2.63;0.97;;;;;;;;;;5090120;28;20953;-57
2023/05/31 13:15:16;;;;;;;12.63;1.67;;;;;;;;;;5092992;28;20443;-57
2023/05/31 13:17:43;;;;;;;1.30;1.13;;;;;;;;;;5092959;28;20568;-58
2023/05/31 13:20:13;;;;;;;1.57;1.27;;;;;;;;;;5093181;28;20496;-58
2023/05/31 13:22:41;;;;;;;1.27;1.17;;;;;;;;;;5093237;28;20479;-58
2023/05/31 13:25:08;;;;;;;4.03;1.30;;;;;;;;;;5093260;28;20451;-58
2023/05/31 13:27:35;;;;;;;9.13;1.40;;;;;;;;;;5092954;28;20504;-58
2023/05/31 13:30:02;;;;;;;1.40;1.10;;;;;;;;;;5093374;28;20442;-58
2023/05/31 13:32:30;;;;;;;3.23;1.27;;;;;;;;;;5093144;28;20443;-58
2023/05/31 13:34:57;;;;;;;1.70;1.00;;;;;;;;;;5093322;28;20508;-58
2023/05/31 13:37:27;;;;;;;1.40;1.10;;;;;;;;;;5093100;28;20443;-58
2023/05/31 13:39:55;;;;;;;1.33;1.00;;;;;;;;;;5093014;28;20530;-58
2023/05/31 13:42:22;;;;;;;4.30;1.10;;;;;;;;;;5092785;28;20524;-58
2023/05/31 13:44:49;;;;;;;1.33;1.00;;;;;;;;;;5092615;28;20530;-58
2023/05/31 13:47:16;;;;;;;1.77;1.00;;;;;;;;;;5092692;28;20447;-58
2023/05/31 13:49:43;;;;;;;1.53;1.00;;;;;;;;;;5092555;28;20447;-58
2023/05/31 13:52:13;;;;;;;3.90;1.20;;;;;;;;;;5092361;28;20488;-58
2023/05/31 13:54:41;;;;;;;1.97;0.80;;;;;;;;;;5092328;28;20506;-58
2023/05/31 13:57:08;;;;;;;1.30;1.20;;;;;;;;;;5092052;28;21060;-58
2023/05/31 13:59:35;;;;;;;3.33;1.40;;;;;;;;;;5092147;28;20957;-58
2023/05/31 14:02:02;;;;;;;2.77;1.00;;;;;;;;;;5092158;28;20496;-58
2023/05/31 14:04:29;;;;;;;1.10;1.00;;;;;;;;;;5092107;28;20452;-58
2023/05/31 14:06:58;;;;;;;2.93;1.10;;;;;;;;;;5091925;28;20181;-58
2023/05/31 14:09:26;;;;;;;1.10;1.00;;;;;;;;;;5089533;28;20447;-58
2023/05/31 14:11:55;;;;;;;1.70;1.13;;;;;;;;;;5092635;28;20497;-58
2023/05/31 14:14:22;;;;;;;3.30;1.30;;;;;;;;;;5091945;28;20443;-58
2023/05/31 14:16:49;;;;;;;2.63;1.57;;;;;;;;;;5091894;28;20534;-58
2023/05/31 14:19:16;;;;;;;3.07;0.97;;;;;;;;;;5092192;28;20443;-58
2023/05/31 14:21:43;;;;;;;2.27;1.00;;;;;;;;;;5092410;28;20474;-58
2023/05/31 14:24:10;;;;;;;1.20;0.97;;;;;;;;;;5092317;28;20546;-58
2023/05/31 14:26:37;;;;;;;1.13;1.03;;;;;;;;;;5089172;28;20557;-59
2023/05/31 14:29:06;;;;;;;1.20;1.10;;;;;;;;;;5092034;28;20807;-59
2023/05/31 14:31:33;;;;;;;1.47;0.90;;;;;;;;;;5092248;28;20852;-59
2023/05/31 14:34:00;;;;;;;1.10;1.00;;;;;;;;;;5092406;28;20451;-59
2023/05/31 14:36:27;;;;;;;1.50;1.10;;;;;;;;;;5092622;28;20914;-57
2023/05/31 14:38:54;;;;;;;1.93;1.00;;;;;;;;;;5094112;28;20435;-57
2023/05/31 14:41:21;;;;;;;1.77;1.30;;;;;;;;;;5095811;28;20446;-57
2023/05/31 14:43:48;;;;;;;2.10;1.37;;;;;;;;;;5095981;28;20443;-57
2023/05/31 14:46:17;;;;;;;1.27;0.97;;;;;;;;;;5093123;28;20450;-58
2023/05/31 14:48:44;;;;;;;1.00;0.90;;;;;;;;;;5095992;28;20545;-58